createdAt,value
2018-12-11T00:00:03.372Z,4.03
2018-12-11T00:02:34.871Z,4.00
2018-12-11T00:05:06.505Z,3.60
2018-12-11T00:07:35.827Z,4.03
2018-12-11T00:10:05.522Z,3.10
2018-12-11T00:12:35.205Z,1.30
2018-12-11T00:15:04.668Z,1.53
2018-12-11T00:17:33.809Z,1.47
2018-12-11T00:20:04.521Z,1.83
2018-12-11T00:22:33.840Z,1.30
2018-12-11T00:25:03.644Z,1.67
2018-12-11T00:27:33.261Z,1.80
2018-12-11T00:30:02.755Z,2.03
2018-12-11T00:32:32.494Z,2.10
2018-12-11T00:35:02.051Z,2.17
2018-12-11T00:37:31.464Z,1.90
2018-12-11T00:40:01.112Z,1.70
2018-12-11T00:42:30.869Z,1.90
2018-12-11T00:45:00.402Z,2.37
2018-12-11T00:47:29.904Z,2.40
2018-12-11T00:49:59.247Z,2.30
2018-12-11T00:52:28.689Z,2.30
2018-12-11T00:54:58.238Z,2.20
2018-12-11T00:57:27.714Z,1.60
2018-12-11T00:59:57.200Z,2.00
2018-12-11T01:02:26.509Z,2.23
2018-12-11T01:04:56.073Z,1.80
2018-12-11T01:07:25.529Z,1.77
2018-12-11T01:09:54.845Z,2.83
2018-12-11T01:12:24.111Z,1.90
2018-12-11T01:14:53.502Z,3.23
2018-12-11T01:17:23.148Z,4.60
2018-12-11T01:19:52.656Z,4.60
2018-12-11T01:22:22.093Z,3.87
2018-12-11T01:24:51.719Z,4.60
2018-12-11T01:27:21.426Z,4.73
2018-12-11T01:29:51.279Z,4.70
2018-12-11T01:32:20.443Z,5.07
2018-12-11T01:34:49.895Z,4.90
2018-12-11T01:37:19.270Z,4.57
2018-12-11T01:39:48.675Z,5.10
2018-12-11T01:42:18.636Z,5.03
2018-12-11T01:44:48.102Z,4.47
2018-12-11T01:47:17.412Z,5.90
2018-12-11T01:49:46.863Z,5.37
2018-12-11T01:52:17.434Z,4.50
2018-12-11T01:54:46.890Z,5.50
2018-12-11T01:57:16.408Z,5.20
2018-12-11T01:59:45.722Z,5.77
2018-12-11T02:02:15.030Z,5.90
2018-12-11T02:04:44.323Z,5.77
2018-12-11T02:07:14.080Z,6.10
2018-12-11T02:09:43.556Z,6.17
2018-12-11T02:12:12.977Z,8.00
2018-12-11T02:14:42.455Z,6.13
2018-12-11T02:17:12.394Z,6.40
2018-12-11T02:19:41.873Z,7.30
2018-12-11T02:22:11.179Z,8.40
2018-12-11T02:24:40.557Z,7.47
2018-12-11T02:27:09.988Z,8.23
2018-12-11T02:29:39.270Z,7.00
2018-12-11T02:32:08.597Z,7.00
2018-12-11T02:34:37.959Z,6.70
2018-12-11T02:37:07.425Z,6.27
2018-12-11T02:39:37.277Z,5.50
2018-12-11T02:42:06.797Z,7.40
2018-12-11T02:44:36.153Z,7.30
2018-12-11T02:47:05.598Z,8.20
2018-12-11T02:49:35.009Z,7.87
2018-12-11T02:52:04.398Z,7.27
2018-12-11T02:54:33.895Z,9.47
2018-12-11T02:57:04.134Z,7.47
2018-12-11T02:59:33.568Z,9.10
2018-12-11T03:02:04.025Z,7.63
2018-12-11T03:04:35.898Z,8.50
2018-12-11T03:07:05.414Z,6.97
2018-12-11T03:09:35.091Z,8.60
2018-12-11T03:12:04.594Z,7.60
2018-12-11T03:14:34.042Z,8.00
2018-12-11T03:17:04.146Z,6.50
2018-12-11T03:19:33.685Z,7.00
2018-12-11T03:22:04.096Z,7.03
2018-12-11T03:24:34.326Z,8.00
2018-12-11T03:27:03.897Z,7.37
2018-12-11T03:29:33.427Z,6.20
2018-12-11T03:32:03.353Z,5.87
2018-12-11T03:34:33.944Z,7.10
2018-12-11T03:37:04.202Z,6.63
2018-12-11T03:39:33.493Z,7.57
2018-12-11T03:42:03.164Z,6.80
2018-12-11T03:44:32.705Z,8.23
2018-12-11T03:47:02.644Z,7.90
2018-12-11T03:49:31.903Z,6.43
2018-12-11T03:52:01.819Z,5.57
2018-12-11T03:54:31.710Z,6.03
2018-12-11T03:57:01.397Z,8.07
2018-12-11T03:59:30.922Z,6.90
2018-12-11T04:02:00.258Z,6.30
2018-12-11T04:04:29.936Z,6.13
2018-12-11T04:06:59.363Z,6.87
2018-12-11T04:09:28.644Z,7.37
2018-12-11T04:11:58.230Z,7.40
2018-12-11T04:14:27.869Z,6.80
2018-12-11T04:16:57.278Z,7.93
2018-12-11T04:19:26.546Z,7.83
2018-12-11T04:21:55.900Z,6.70
2018-12-11T04:24:25.341Z,7.37
2018-12-11T04:26:56.829Z,6.43
2018-12-11T04:29:26.019Z,7.03
2018-12-11T04:31:55.781Z,7.20
2018-12-11T04:34:25.215Z,6.57
2018-12-11T04:36:54.561Z,7.37
2018-12-11T04:39:24.129Z,7.77
2018-12-11T04:41:53.647Z,8.07
2018-12-11T04:44:23.346Z,7.00
2018-12-11T04:46:52.941Z,10.03
2018-12-11T04:49:22.360Z,8.90
2018-12-11T04:51:51.856Z,10.10
2018-12-11T04:54:21.462Z,9.70
2018-12-11T04:56:51.079Z,8.73
2018-12-11T04:59:20.617Z,7.43
2018-12-11T05:01:50.176Z,8.20
2018-12-11T05:04:19.577Z,8.67
2018-12-11T05:06:48.961Z,8.87
2018-12-11T05:09:18.361Z,9.83
2018-12-11T05:11:47.786Z,11.63
2018-12-11T05:14:17.191Z,10.33
2018-12-11T05:16:47.001Z,8.70
2018-12-11T05:19:16.364Z,9.10
2018-12-11T05:21:45.803Z,9.80
2018-12-11T05:24:15.660Z,9.50
2018-12-11T05:26:44.912Z,9.70
2018-12-11T05:29:14.237Z,10.93
2018-12-11T05:31:44.321Z,10.50
2018-12-11T05:34:13.652Z,11.10
2018-12-11T05:36:43.121Z,10.77
2018-12-11T05:39:12.443Z,10.60
2018-12-11T05:41:42.146Z,8.47
2018-12-11T05:44:11.828Z,9.87
2018-12-11T05:46:41.266Z,13.13
2018-12-11T05:49:10.595Z,11.67
2018-12-11T05:51:39.963Z,10.00
2018-12-11T05:54:09.266Z,11.83
2018-12-11T05:56:38.559Z,15.90
2018-12-11T05:59:07.951Z,12.20
2018-12-11T06:01:37.423Z,11.23
2018-12-11T06:04:06.852Z,9.90
2018-12-11T06:06:36.374Z,10.97
2018-12-11T06:09:07.325Z,10.50
2018-12-11T06:11:36.614Z,11.17
2018-12-11T06:14:06.196Z,10.90
2018-12-11T06:16:35.893Z,11.13
2018-12-11T06:19:06.206Z,10.90
2018-12-11T06:21:35.664Z,11.10
2018-12-11T06:24:05.156Z,10.40
2018-12-11T06:26:34.498Z,10.30
2018-12-11T06:29:04.116Z,8.87
2018-12-11T06:31:33.677Z,8.53
2018-12-11T06:34:03.718Z,8.80
2018-12-11T06:36:33.238Z,10.83
2018-12-11T06:39:03.432Z,8.10
2018-12-11T06:41:35.072Z,8.90
2018-12-11T06:44:04.622Z,9.50
2018-12-11T06:46:34.495Z,10.03
2018-12-11T06:49:04.222Z,9.27
2018-12-11T06:51:33.762Z,12.03
2018-12-11T06:54:04.190Z,10.60
2018-12-11T06:56:33.505Z,10.40
2018-12-11T06:59:02.809Z,8.60
2018-12-11T07:01:32.456Z,7.23
2018-12-11T07:04:02.362Z,8.13
2018-12-11T07:06:31.671Z,8.50
2018-12-11T07:09:01.658Z,8.03
2018-12-11T07:11:32.998Z,34.90
2018-12-11T07:14:02.479Z,22.20
2018-12-11T07:16:31.779Z,10.73
2018-12-11T07:19:01.331Z,11.53
2018-12-11T07:21:30.832Z,11.53
2018-12-11T07:24:00.141Z,9.30
2018-12-11T07:26:29.899Z,7.53
2018-12-11T07:28:59.541Z,7.30
2018-12-11T07:31:28.821Z,7.20
2018-12-11T07:33:58.337Z,7.50
2018-12-11T07:36:28.748Z,7.57
2018-12-11T07:38:58.451Z,7.63
2018-12-11T07:41:27.936Z,8.40
2018-12-11T07:43:57.658Z,8.80
2018-12-11T07:46:27.067Z,8.83
2018-12-11T07:48:56.396Z,8.77
2018-12-11T07:51:25.933Z,10.50
2018-12-11T07:53:55.447Z,11.07
2018-12-11T07:56:25.067Z,11.03
2018-12-11T07:58:54.419Z,10.83
2018-12-11T08:01:23.890Z,9.80
2018-12-11T08:03:53.490Z,12.60
2018-12-11T08:06:22.925Z,14.00
2018-12-11T08:08:52.671Z,15.90
2018-12-11T08:11:22.586Z,14.10
2018-12-11T08:13:52.123Z,13.13
2018-12-11T08:16:21.790Z,14.20
2018-12-11T08:18:51.516Z,11.40
2018-12-11T08:21:20.944Z,10.07
2018-12-11T08:23:50.271Z,11.10
2018-12-11T08:26:19.609Z,11.00
2018-12-11T08:28:49.038Z,11.00
2018-12-11T08:31:18.384Z,11.33
2018-12-11T08:33:47.638Z,9.80
2018-12-11T08:36:17.249Z,10.30
2018-12-11T08:38:46.653Z,12.90
2018-12-11T08:41:16.185Z,12.87
2018-12-11T08:43:45.862Z,12.80
2018-12-11T08:46:15.314Z,11.60
2018-12-11T08:48:44.755Z,10.03
2018-12-11T08:51:14.297Z,11.00
2018-12-11T08:53:43.799Z,9.00
2018-12-11T08:56:13.328Z,8.37
2018-12-11T08:58:42.786Z,8.93
2018-12-11T09:01:12.189Z,9.57
2018-12-11T09:03:41.595Z,8.30
2018-12-11T09:06:11.125Z,7.80
2018-12-11T09:08:41.107Z,7.70
2018-12-11T09:11:10.597Z,8.83
2018-12-11T09:13:40.031Z,13.43
2018-12-11T09:16:09.365Z,30.70
2018-12-11T09:18:38.814Z,13.70
2018-12-11T09:21:08.262Z,9.40
2018-12-11T09:23:38.348Z,7.37
2018-12-11T09:26:07.919Z,6.73
2018-12-11T09:28:39.424Z,5.40
2018-12-11T09:31:08.929Z,4.67
2018-12-11T09:33:38.193Z,4.60
2018-12-11T09:36:07.698Z,3.53
2018-12-11T09:38:37.236Z,4.73
2018-12-11T09:41:06.605Z,5.03
2018-12-11T09:43:36.250Z,6.30
2018-12-11T09:46:05.596Z,6.27
2018-12-11T09:48:34.945Z,6.97
2018-12-11T09:51:04.451Z,6.87
2018-12-11T09:53:33.953Z,7.53
2018-12-11T09:56:04.047Z,15.90
2018-12-11T09:58:33.494Z,8.57
2018-12-11T10:01:03.159Z,6.23
2018-12-11T10:03:33.191Z,5.70
2018-12-11T10:06:02.793Z,5.50
2018-12-11T10:08:32.757Z,5.07
2018-12-11T10:11:02.974Z,6.03
2018-12-11T10:13:32.438Z,4.97
2018-12-11T10:16:01.936Z,7.27
2018-12-11T10:18:31.486Z,8.30
2018-12-11T10:21:01.588Z,6.20
2018-12-11T10:23:31.974Z,4.30
2018-12-11T10:26:01.468Z,6.17
2018-12-11T10:28:31.550Z,5.40
2018-12-11T10:31:02.450Z,12.80
2018-12-11T10:33:32.738Z,4.07
2018-12-11T10:36:03.413Z,4.50
2018-12-11T10:38:33.745Z,4.10
2018-12-11T10:41:04.108Z,4.43
2018-12-11T10:43:34.541Z,3.63
2018-12-11T10:46:05.339Z,4.00
2018-12-11T10:48:36.295Z,7.80
2018-12-11T10:51:07.572Z,13.10
2018-12-11T10:53:37.706Z,8.50
2018-12-11T10:56:07.862Z,5.00
2018-12-11T10:58:38.130Z,3.77
2018-12-11T11:01:13.064Z,4.43
2018-12-11T11:03:43.191Z,3.60
2018-12-11T11:06:13.298Z,3.57
2018-12-11T11:08:44.216Z,3.50
2018-12-11T11:11:14.229Z,4.80
2018-12-11T11:13:44.303Z,3.53
2018-12-11T11:16:15.324Z,4.47
2018-12-11T11:18:45.773Z,3.67
2018-12-11T11:21:15.853Z,3.03
2018-12-11T11:23:45.863Z,3.00
2018-12-11T11:26:16.715Z,2.50
2018-12-11T11:28:46.763Z,2.77
2018-12-11T11:31:16.885Z,3.00
2018-12-11T11:33:46.988Z,3.43
2018-12-11T11:36:17.071Z,4.00
2018-12-11T11:38:47.119Z,3.97
2018-12-11T11:41:17.332Z,3.63
2018-12-11T11:43:47.495Z,3.47
2018-12-11T11:46:18.235Z,4.03
2018-12-11T11:48:48.360Z,4.40
2018-12-11T11:51:18.432Z,4.60
2018-12-11T11:53:48.884Z,3.60
2018-12-11T11:56:18.961Z,5.33
2018-12-11T11:58:50.325Z,3.47
2018-12-11T12:01:20.748Z,4.53
2018-12-11T12:03:50.708Z,4.37
2018-12-11T12:06:21.027Z,5.27
2018-12-11T12:08:51.434Z,3.60
2018-12-11T12:11:21.390Z,3.90
2018-12-11T12:13:51.360Z,4.23
2018-12-11T12:16:21.551Z,3.90
2018-12-11T12:18:51.913Z,4.50
2018-12-11T12:21:21.777Z,4.60
2018-12-11T12:23:52.397Z,4.13
2018-12-11T12:26:22.602Z,4.43
2018-12-11T12:28:53.246Z,9.40
2018-12-11T12:31:24.401Z,5.30
2018-12-11T12:33:54.322Z,4.10
2018-12-11T12:36:25.049Z,7.03
2018-12-11T12:38:55.257Z,4.77
2018-12-11T12:41:25.152Z,12.57
2018-12-11T12:43:55.634Z,6.27
2018-12-11T12:46:26.123Z,5.90
2018-12-11T12:48:56.638Z,5.40
2018-12-11T12:51:26.740Z,5.77
2018-12-11T12:53:58.284Z,5.90
2018-12-11T12:56:28.551Z,6.67
2018-12-11T12:58:58.614Z,6.40
2018-12-11T13:01:28.576Z,6.90
2018-12-11T13:03:58.742Z,7.10
2018-12-11T13:06:28.926Z,8.77
2018-12-11T13:08:59.448Z,6.07
2018-12-11T13:11:29.609Z,4.90
2018-12-11T13:14:00.002Z,6.00
2018-12-11T13:16:31.399Z,6.63
2018-12-11T13:19:01.622Z,5.57
2018-12-11T13:21:31.706Z,5.50
2018-12-11T13:24:01.710Z,5.10
2018-12-11T13:26:31.868Z,5.83
2018-12-11T13:29:01.861Z,5.93
2018-12-11T13:31:31.921Z,6.00
2018-12-11T13:34:02.066Z,5.23
2018-12-11T13:36:32.387Z,5.40
2018-12-11T13:39:03.598Z,5.50
2018-12-11T13:41:35.623Z,5.00
2018-12-11T13:44:06.362Z,4.97
2018-12-11T13:46:36.745Z,5.93
2018-12-11T13:49:07.014Z,6.37
2018-12-11T13:51:37.135Z,6.60
2018-12-11T13:54:07.147Z,5.80
2018-12-11T13:56:37.397Z,6.60
2018-12-11T13:59:07.509Z,6.10
2018-12-11T14:01:37.651Z,7.30
2018-12-11T14:04:07.917Z,6.80
2018-12-11T14:06:38.211Z,7.27
2018-12-11T14:09:13.865Z,8.60
2018-12-11T14:11:43.953Z,8.90
2018-12-11T14:14:13.977Z,9.53
2018-12-11T14:16:44.205Z,8.57
2018-12-11T14:19:14.165Z,9.23
2018-12-11T14:21:44.381Z,7.90
2018-12-11T14:24:14.386Z,8.87
2018-12-11T14:26:44.740Z,7.63
2018-12-11T14:29:15.174Z,8.37
2018-12-11T14:31:46.582Z,8.07
2018-12-11T14:34:16.707Z,7.13
2018-12-11T14:36:46.926Z,6.67
2018-12-11T14:39:19.244Z,6.70
2018-12-11T14:41:49.625Z,9.20
2018-12-11T14:44:19.757Z,14.80
2018-12-11T14:46:50.869Z,9.00
2018-12-11T14:49:21.309Z,6.83
2018-12-11T14:51:51.675Z,6.63
2018-12-11T14:54:22.135Z,6.50
2018-12-11T14:56:52.297Z,6.60
2018-12-11T14:59:22.373Z,6.23
2018-12-11T15:01:52.996Z,7.10
2018-12-11T15:04:23.305Z,6.60
2018-12-11T15:06:53.669Z,6.50
2018-12-11T15:09:29.163Z,7.30
2018-12-11T15:11:59.135Z,8.83
2018-12-11T15:14:29.461Z,8.43
2018-12-11T15:17:00.377Z,8.20
2018-12-11T15:19:30.499Z,8.33
2018-12-11T15:22:00.919Z,8.77
2018-12-11T15:24:31.310Z,8.47
2018-12-11T15:27:01.469Z,8.43
2018-12-11T15:29:31.677Z,8.27
2018-12-11T15:32:01.707Z,8.17
2018-12-11T15:34:31.953Z,7.47
2018-12-11T15:37:02.394Z,8.43
2018-12-11T15:39:35.773Z,13.73
2018-12-11T15:42:04.892Z,12.60
2018-12-11T15:44:35.717Z,10.50
2018-12-11T15:47:06.028Z,9.10
2018-12-11T15:49:36.568Z,8.90
2018-12-11T15:52:06.694Z,8.50
2018-12-11T15:54:36.789Z,10.73
2018-12-11T15:57:06.955Z,10.30
2018-12-11T15:59:36.924Z,9.50
2018-12-11T16:02:07.232Z,8.03
2018-12-11T16:04:37.493Z,8.00
2018-12-11T16:07:07.630Z,7.50
2018-12-11T16:09:37.977Z,8.00
2018-12-11T16:12:08.131Z,7.57
2018-12-11T16:14:38.205Z,7.97
2018-12-11T16:17:08.177Z,7.57
2018-12-11T16:19:38.340Z,9.57
2018-12-11T16:22:08.451Z,9.90
2018-12-11T16:24:38.611Z,11.10
2018-12-11T16:27:08.683Z,10.40
2018-12-11T16:29:38.869Z,9.80
2018-12-11T16:32:09.102Z,9.43
2018-12-11T16:34:39.213Z,10.10
2018-12-11T16:37:10.176Z,9.67
2018-12-11T16:39:40.319Z,28.23
2018-12-11T16:42:11.241Z,11.40
2018-12-11T16:44:41.821Z,10.13
2018-12-11T16:47:12.011Z,8.70
2018-12-11T16:49:42.712Z,8.97
2018-12-11T16:52:12.933Z,8.20
2018-12-11T16:54:43.155Z,8.30
2018-12-11T16:57:13.188Z,9.60
2018-12-11T16:59:43.282Z,8.80
2018-12-11T17:02:13.547Z,8.30
2018-12-11T17:04:43.650Z,9.33
2018-12-11T17:07:14.218Z,10.97
2018-12-11T17:09:44.572Z,10.57
2018-12-11T17:12:14.854Z,8.57
2018-12-11T17:14:45.383Z,9.60
2018-12-11T17:17:15.797Z,9.13
2018-12-11T17:19:45.742Z,10.03
2018-12-11T17:22:15.627Z,10.00
2018-12-11T17:24:45.851Z,10.10
2018-12-11T17:27:16.109Z,8.63
2018-12-11T17:29:46.371Z,10.20
2018-12-11T17:32:16.253Z,10.27
2018-12-11T17:34:47.305Z,10.33
2018-12-11T17:37:18.549Z,9.30
2018-12-11T17:39:49.641Z,10.83
2018-12-11T17:42:20.495Z,10.90
2018-12-11T17:44:51.860Z,8.63
2018-12-11T17:47:22.928Z,13.30
2018-12-11T17:49:53.206Z,16.77
2018-12-11T17:52:23.381Z,8.87
2018-12-11T17:54:53.584Z,9.00
2018-12-11T17:57:23.774Z,9.00
2018-12-11T17:59:54.297Z,7.70
2018-12-11T18:02:30.195Z,13.43
2018-12-11T18:05:00.362Z,9.53
2018-12-11T18:07:30.630Z,11.13
2018-12-11T18:10:00.613Z,8.13
2018-12-11T18:12:31.437Z,9.30
2018-12-11T18:15:01.552Z,7.77
2018-12-11T18:17:33.721Z,17.70
2018-12-11T18:20:04.006Z,11.77
2018-12-11T18:22:34.229Z,14.47
2018-12-11T18:25:05.044Z,24.50
2018-12-11T18:27:36.460Z,19.80
2018-12-11T18:30:06.773Z,36.60
2018-12-11T18:32:37.134Z,30.73
2018-12-11T18:35:08.407Z,25.83
2018-12-11T18:37:38.689Z,23.60
2018-12-11T18:40:09.970Z,15.43
2018-12-11T18:42:40.251Z,15.70
2018-12-11T18:45:10.558Z,18.20
2018-12-11T18:47:41.921Z,26.03
2018-12-11T18:50:12.198Z,30.90
2018-12-11T18:52:42.382Z,19.43
2018-12-11T18:55:12.643Z,21.00
2018-12-11T18:57:42.878Z,13.37
2018-12-11T19:00:13.390Z,11.57
2018-12-11T19:02:45.235Z,9.77
2018-12-11T19:05:15.754Z,9.10
2018-12-11T19:07:45.976Z,9.13
2018-12-11T19:10:18.377Z,8.77
2018-12-11T19:12:48.678Z,25.97
2018-12-11T19:15:18.977Z,24.70
2018-12-11T19:17:49.523Z,20.00
2018-12-11T19:20:19.926Z,22.10
2018-12-11T19:22:50.632Z,16.83
2018-12-11T19:25:21.646Z,10.70
2018-12-11T19:27:52.086Z,10.50
2018-12-11T19:30:22.362Z,8.57
2018-12-11T19:32:54.665Z,10.30
2018-12-11T19:35:32.839Z,8.47
2018-12-11T19:38:01.917Z,9.30
2018-12-11T19:40:33.299Z,8.10
2018-12-11T19:43:06.895Z,8.23
2018-12-11T19:45:35.889Z,9.40
2018-12-11T19:48:05.996Z,8.30
2018-12-11T19:50:36.397Z,8.03
2018-12-11T19:53:06.344Z,9.20
2018-12-11T19:55:37.021Z,8.57
2018-12-11T19:58:07.637Z,8.87
2018-12-11T20:00:38.097Z,9.07
2018-12-11T20:03:10.783Z,9.10
2018-12-11T20:05:40.826Z,10.10
2018-12-11T20:08:10.979Z,8.90
2018-12-11T20:10:41.011Z,9.13
2018-12-11T20:13:11.685Z,10.60
2018-12-11T20:15:42.172Z,11.20
2018-12-11T20:18:13.002Z,10.10
2018-12-11T20:20:44.319Z,10.43
2018-12-11T20:23:14.501Z,9.47
2018-12-11T20:25:45.000Z,9.93
2018-12-11T20:28:15.444Z,9.03
2018-12-11T20:30:45.612Z,9.43
2018-12-11T20:33:16.367Z,8.77
2018-12-11T20:35:46.878Z,10.47
2018-12-11T20:38:17.289Z,9.50
2018-12-11T20:40:47.503Z,9.30
2018-12-11T20:43:18.314Z,7.93
2018-12-11T20:45:49.002Z,7.60
2018-12-11T20:48:20.368Z,7.70
2018-12-11T20:50:50.422Z,5.93
2018-12-11T20:53:20.748Z,6.43
2018-12-11T20:55:51.104Z,6.70
2018-12-11T20:58:21.163Z,7.17
2018-12-11T21:00:51.807Z,7.10
2018-12-11T21:03:22.121Z,7.00
2018-12-11T21:05:52.341Z,7.27
2018-12-11T21:08:25.055Z,7.47
2018-12-11T21:10:56.193Z,6.43
2018-12-11T21:13:26.254Z,6.70
2018-12-11T21:15:56.758Z,6.83
2018-12-11T21:18:27.204Z,6.93
2018-12-11T21:20:57.374Z,7.77
2018-12-11T21:23:27.602Z,7.27
2018-12-11T21:25:57.559Z,7.47
2018-12-11T21:28:27.930Z,7.20
2018-12-11T21:30:58.214Z,8.10
2018-12-11T21:33:28.421Z,8.37
2018-12-11T21:35:59.072Z,7.47
2018-12-11T21:38:29.226Z,7.50
2018-12-11T21:40:59.746Z,7.50
2018-12-11T21:43:30.297Z,7.40
2018-12-11T21:46:00.298Z,8.70
2018-12-11T21:48:32.077Z,7.90
2018-12-11T21:51:02.335Z,6.80
2018-12-11T21:53:32.486Z,7.43
2018-12-11T21:56:02.492Z,6.53
2018-12-11T21:58:32.885Z,6.90
2018-12-11T22:01:02.837Z,6.90
2018-12-11T22:03:33.650Z,6.10
2018-12-11T22:06:04.081Z,7.00
2018-12-11T22:08:34.372Z,6.73
2018-12-11T22:11:04.409Z,7.40
2018-12-11T22:13:34.584Z,7.10
2018-12-11T22:16:04.822Z,7.80
2018-12-11T22:18:35.225Z,7.20
2018-12-11T22:21:05.204Z,7.67
2018-12-11T22:23:35.275Z,7.03
2018-12-11T22:26:05.425Z,7.80
2018-12-11T22:28:35.819Z,8.27
2018-12-11T22:31:05.854Z,7.90
2018-12-11T22:33:36.298Z,7.63
2018-12-11T22:36:06.590Z,7.97
2018-12-11T22:38:36.885Z,7.70
2018-12-11T22:41:06.965Z,8.37
2018-12-11T22:43:37.150Z,7.33
2018-12-11T22:46:07.215Z,8.90
2018-12-11T22:48:37.398Z,7.70
2018-12-11T22:51:07.844Z,6.80
2018-12-11T22:53:37.794Z,7.20
2018-12-11T22:56:07.741Z,7.60
2018-12-11T22:58:38.445Z,7.50
2018-12-11T23:01:08.611Z,7.10
2018-12-11T23:03:40.677Z,8.13
2018-12-11T23:06:10.923Z,8.70
2018-12-11T23:08:40.850Z,7.63
2018-12-11T23:11:10.801Z,10.37
2018-12-11T23:13:40.589Z,9.83
2018-12-11T23:16:10.751Z,9.97
2018-12-11T23:18:41.063Z,11.13
2018-12-11T23:21:11.239Z,8.80
2018-12-11T23:23:41.450Z,9.07
2018-12-11T23:26:11.589Z,10.23
2018-12-11T23:28:41.579Z,10.67
2018-12-11T23:31:11.745Z,9.27
2018-12-11T23:33:41.896Z,9.60
2018-12-11T23:36:11.776Z,8.20
2018-12-11T23:38:41.733Z,10.50
2018-12-11T23:41:11.711Z,10.07
2018-12-11T23:43:42.149Z,10.20
2018-12-11T23:46:12.708Z,10.60
2018-12-11T23:48:42.989Z,10.40
2018-12-11T23:51:12.978Z,10.00
2018-12-11T23:53:43.021Z,8.80
2018-12-11T23:56:13.029Z,9.90
2018-12-11T23:58:43.046Z,10.30
